Timeline UpdatesTrip UpdatesNews PostsPvt PostsTravel TipsAdmin PostsConv PostsFollowed PostsChat RequestsBlog PostsPNR Posts

Disclaimer
Search
 
 
Tue Sep 23, 2014 11:50:34 ISTHomeTrainsΣChainsAtlasPNRForumGalleryNewsFAQTripsMembersLoginFeedback
No Recent News for this Train
Other Trains in the News **new
Latest...
.
Sun Mar 09, 2014 (12:08PM)
⇐ Return Journey: Train# 12722

12721/Dakshin SF Express

Time-Table HAS CHANGED.
Sep 01 (11:45PM)
Change Departure Station:
Change Arrival Station:
Post a Train Travel TipPost a Train Travel Tip **new
Post a Comment/Question/Picture/VideoPost a Comment/Question/Picture/Video
Pantry/Catering
✓ Pantry Car Avbl
✓ Catering Avbl
RSA - Rake Sharing
Rake/Coach Composition
From HYB to KZJ, 12721 Dakshin Exp; LOCO(LGD-WAP7)-SLRD-A2-B2-PC-S8-S9-S10-S11-S12-S13-S14-GS-GS-GS-GS-SLR; From KZJ to NZM, 12721 Dakshin Exp; LOCO(LGD-WAP7)-SLR-S4-S5-S6-B1-A1-SLRD-A2-B2-PC-S8-S9-S10-S11-S12-S13-S14-GS-GS-GS-GS-SLR
Loco
Loco In-Charge :- LGD WAP-7 / LGD WAP-4
News    PNR    Forum    Time-Table    Availability    Fare Chart    Map    Arr/Dep History    Trips    Gallery    ΣChains    X/O    Timeline    
Travel Time: 0h 20m    0 halts    Distance: 9 km    Avg Speed: 27 km/hr
Type: SuperFast
Zone: SCR/South Central
Departs @ 22:30 (Avg 3m late)
Platform# 4
SMTWTFS
Hyderabad Deccan Nampally/HYB 
Arrives @ 22:50 (Avg 12m late)
Platform# 1
SMTWTFS
Secunderabad Junction/SC 

0 halts. 6 intermediate Stations between Hyderabad Deccan Nampally and Secunderabad Junction

Show ALL intermediate Stations  Show Old Time-Table

#CodeStation NameX/OArrivesAvgDepartsAvgHaltPFDay#KmSpeedElevZoneAddress
1HYBHyderabad Deccan Nampally (6)»  -22:30+3410.028510mSCRHyderabad, Telangana
2SCSecunderabad Junction (10)•X  22:50+1222:55+145m119.257539mSCRSecunderabad 500003, Telangana
3BGBhongir (3)  23:30 23:44+3123:40 23:45+2510 1m1155.697455mSCRNalgonda Dist., Telangana
4ZNJangaon (2)  00:03 00:08+3000:05 00:10+302m2292.948380mSCRWarangal Dist., Telangana
5KZJKazipet Junction (3)X  01:10+601:30+2020m12140.993292mSCRWarangal Dist., Telangana
6JMKTJamikunta (2)X  01:53+3801:55+382m12176.495236mSCRKarimnagar Dist., Telangana
7PDPLPeddapalli Junction (2)O  02:20+4302:22+422m12215.950228mSCRKarimnagar Dist., Telangana
8RDMRamagundam (3)O  02:43+3702:45+362m12233.563170mSCRKarimnagar Dist. Ph : 08728 - 255237, Telangana
9MCIManchiryal (3)X  02:58+3903:00+392m12247.266159mSCRAdilabad Dist., Telangana
10BPABellampalli (3)X  03:18+4103:20+402m12267.161205mSCRTel:.08735 223298, Telangana
11SKZRSirpur Kaghaznagar (3)X  03:58+1504:00+152m12305.552181mSCRAdilabad Dist., Telangana
12BPQBalharshah Junction (5)X  05:20+1105:30+1310m--2375.343188mCRBallarpur. Ph : 07172 - 240341, Maharashtra
13CDChandrapur Maharashtra (3)  05:49+1705:50+181m--2389.063194mCRChandrapur 442401, Maharashtra
14BUXBhandak (5)  06:13+1706:14+181m--2413.363207mCRChandrapur, Maharashtra
15WRRWarora (2)X  06:35+1606:36+171m--2435.478214mCRWarora, Maharashtra
16HGTHinganghat (3)  07:06+1907:07+211m--2474.544228mCRHinganghat, Maharashtra
17SEGMSewagram Junction (5)  07:52+907:53+121m32507.676279mCRWardha, Maharashtra
18SNISindi (2)  08:16+1308:17+141m--2536.977258mCRWardha, Maharashtra
19AJNIAjni (3)  08:51+1408:52+141m12580.88310mCRNagpur 440003, Maharashtra
20NGPNagpur Junction (8)X  09:15+609:25+810m12583.870314mCRNagpur 440001, Maharashtra
21KATLKatol (2)  10:17+910:18+101m--2644.760 CRKatol, Maharashtra
22NRKRNarkher Junction (4)X  10:43+610:44+71m--2669.861411mCRNarkher, Maharashtra
23PARPandhurna (2)  11:02+711:03+91m--2688.261481mCRDistt: Chhindwara, Madhya Pradesh
24MTYMultai (2)X  11:43+2011:45+202m--2729.065762mCRMultai, Madhya Pradesh
25AMLAAmla Junction (5)O  12:06+1712:08+172m--2751.872733mCRAmla Distt. Betul, Madhya Pradesh
26BZUBetul (3)X  12:27+2012:29+222m--2774.753644mCRBetul, Madhya Pradesh
27GDYAGhoradongri (3)X  13:10+2113:12+212m12810.645 CRBetul, Madhya Pradesh
28ETItarsi Junction (7)  14:45+314:55+710m12881.060329mWCRItarsi 461111, Madhya Pradesh
29HBDHoshangabad (2)O  15:14 15:13+915:15+101 2m--2899.164308mWCRHoshangabad, Madhya Pradesh
30HBJBhopal HabibGanj (5)X  16:19 16:18+2416:20+241 2m32966.515496mWCRHabibGanj, Madhya Pradesh
31BPLBhopal Junction (6)X  16:45+1616:50+185m22972.7100497mWCRBhopal, Madhya Pradesh
32BHSVidisha (3)X  17:23 17:22+2917:24+291 2m121026.281 WCRVidisha, Madhya Pradesh
33BAQGanj Basoda (4)XO  17:54 17:53+3517:55+351 2m121065.678 WCRVidisha, Madhya Pradesh
34MABAMandi Bamora (3)X  18:18 18:17+3518:19+361 2m121094.125413mWCRState Highway 14, Madhya Pradesh
35BINABina Junction (5)X  19:00+1519:05+175m321111.373414mWCRJn Pt - KATNI/GUNA/ BPL/JHS, Madhya Pradesh
36LARLalitpur (3)X  19:58 19:57+2119:59+221 2m321174.290373mNCRLalitpur, Uttar Pradesh
37BABBabina (3)X  20:43 20:42+2620:44+271 2m221239.043285mNCRBabina, Uttar Pradesh
38JHSJhansi Junction (7)X  21:18 21:20+2121:28 21:30+2210m421264.575259mNCRJhansi, Uttar Pradesh
39DAADatia (2)XO  21:51 21:50+2921:52+301 2m--21289.679264mNCRDatia, Madhya Pradesh
40GWLGwalior Junction (4)  22:47+3222:52+325m221362.293214mNCRGwalior, Madhya Pradesh
41MRAMorena (3)  23:18 23:17+3623:19+361 2m221400.855176mNCRMorena, Madhya Pradesh
42AGCAgra Cantt. (6)X  00:45+2300:50+255m231480.275174mNCRAgra, Uttar Pradesh
43MTJMathura Junction (10)X  01:33+3501:38+355m231533.963179mNCRMathura, Uttar Pradesh
44BVHBallabgarh (5)  03:19 03:18+1503:20+161 2m331639.044203mNRFaridabad, Haryana
45FDBFaridabad (4)  03:30 03:31+1603:33+153 2m231647.139206mNRold Faridabad, Haryana
46NZMDelhi Hazrat Nizamuddin (7)  04:00 04:05+13-631667.9-209mNRNew Delhi 110013, Delhi NCT
Scroll to Top
Scroll to Bottom